createdAt,value
2023-04-15T00:01:24.231Z,94.00
2023-04-15T00:04:38.644Z,94.08
2023-04-15T00:07:56.728Z,94.30
2023-04-15T00:11:23.061Z,94.41
2023-04-15T00:14:34.579Z,94.57
2023-04-15T00:18:01.037Z,94.81
2023-04-15T00:21:14.934Z,95.09
2023-04-15T00:24:19.558Z,95.33
2023-04-15T00:27:52.555Z,95.33
2023-04-15T00:31:07.135Z,95.74
2023-04-15T00:34:19.213Z,96.06
2023-04-15T00:37:45.944Z,96.17
2023-04-15T00:40:59.179Z,96.42
2023-04-15T00:44:15.900Z,96.69
2023-04-15T00:47:55.142Z,96.84
2023-04-15T00:51:33.757Z,97.03
2023-04-15T00:54:58.761Z,96.97
2023-04-15T00:58:38.839Z,97.27
2023-04-15T01:02:28.052Z,97.52
2023-04-15T01:06:04.579Z,97.32
2023-04-15T01:09:53.798Z,97.65
2023-04-15T01:13:24.783Z,97.89
2023-04-15T01:16:59.511Z,97.86
2023-04-15T01:20:27.895Z,98.10
2023-04-15T01:23:59.760Z,98.13
2023-04-15T01:27:26.347Z,98.26
2023-04-15T01:30:57.334Z,98.32
2023-04-15T01:34:24.083Z,98.51
2023-04-15T01:37:44.178Z,98.68
2023-04-15T01:41:01.781Z,98.74
2023-04-15T01:44:46.081Z,98.87
2023-04-15T01:48:27.346Z,98.95
2023-04-15T01:51:51.036Z,99.21
2023-04-15T01:55:20.209Z,99.07
2023-04-15T01:58:48.931Z,99.08
2023-04-15T02:02:19.798Z,99.34
2023-04-15T02:06:01.838Z,99.49
2023-04-15T02:09:38.854Z,99.43
2023-04-15T02:13:02.935Z,99.43
2023-04-15T02:16:41.180Z,99.32
2023-04-15T02:19:53.766Z,99.74
2023-04-15T02:23:12.520Z,99.75
2023-04-15T02:26:54.124Z,99.51
2023-04-15T02:30:19.363Z,99.45
2023-04-15T02:33:55.902Z,99.79
2023-04-15T02:37:27.459Z,99.97
2023-04-15T02:40:56.054Z,99.96
2023-04-15T02:44:27.601Z,100.00
2023-04-15T02:48:06.789Z,99.96
2023-04-15T02:51:50.681Z,100.00
2023-04-15T02:55:04.634Z,100.00
2023-04-15T02:58:53.703Z,100.00
2023-04-15T03:02:23.583Z,100.00
2023-04-15T03:06:18.214Z,100.00
2023-04-15T03:09:41.991Z,100.00
2023-04-15T03:13:04.224Z,100.00
2023-04-15T03:16:33.834Z,100.00
2023-04-15T03:19:59.895Z,100.00
2023-04-15T03:23:25.037Z,100.00
2023-04-15T03:26:56.123Z,100.00
2023-04-15T03:30:39.103Z,100.00
2023-04-15T03:34:11.426Z,100.00
2023-04-15T03:37:50.046Z,100.00
2023-04-15T03:41:12.695Z,100.00
2023-04-15T03:44:57.255Z,100.00
2023-04-15T03:48:28.936Z,100.00
2023-04-15T03:52:02.215Z,100.00
2023-04-15T03:55:41.965Z,100.00
2023-04-15T03:59:18.743Z,100.00
2023-04-15T04:02:57.176Z,100.00
2023-04-15T04:06:09.569Z,100.00
2023-04-15T04:09:25.969Z,100.00
2023-04-15T04:13:07.770Z,100.00
2023-04-15T04:16:47.390Z,100.00
2023-04-15T04:20:12.018Z,100.00
2023-04-15T04:23:50.741Z,100.00
2023-04-15T04:27:21.154Z,100.00
2023-04-15T04:30:54.363Z,100.00
2023-04-15T04:34:18.458Z,100.00
2023-04-15T04:37:47.748Z,100.00
2023-04-15T04:41:16.654Z,100.00
2023-04-15T04:45:05.746Z,100.00
2023-04-15T04:48:20.168Z,100.00
2023-04-15T04:52:01.045Z,100.00
2023-04-15T04:55:37.825Z,100.00
2023-04-15T04:58:43.372Z,100.00
2023-04-15T05:02:10.210Z,100.00
2023-04-15T05:05:42.331Z,100.00
2023-04-15T05:09:07.085Z,100.00
2023-04-15T05:12:40.699Z,100.00
2023-04-15T05:15:47.519Z,100.00
2023-04-15T05:18:38.038Z,100.00
2023-04-15T05:21:42.601Z,100.00
2023-04-15T05:24:36.571Z,100.00
2023-04-15T05:27:27.477Z,100.00
2023-04-15T05:30:39.275Z,100.00
2023-04-15T05:33:24.962Z,100.00
2023-04-15T05:36:20.058Z,100.00
2023-04-15T05:39:28.169Z,100.00
2023-04-15T05:42:12.524Z,100.00
2023-04-15T05:44:52.601Z,100.00
2023-04-15T05:47:38.753Z,100.00
2023-04-15T05:50:37.261Z,100.00
2023-04-15T05:53:47.712Z,100.00
2023-04-15T05:56:27.876Z,99.91
2023-04-15T05:59:33.214Z,99.84
2023-04-15T06:02:16.612Z,99.67
2023-04-15T06:05:01.373Z,99.73
2023-04-15T06:07:48.717Z,99.49
2023-04-15T06:10:39.011Z,99.52
2023-04-15T06:13:42.716Z,99.37
2023-04-15T06:16:30.876Z,99.17
2023-04-15T06:19:12.653Z,99.03
2023-04-15T06:21:49.327Z,98.97
2023-04-15T06:24:31.600Z,98.92
2023-04-15T06:27:25.077Z,98.93
2023-04-15T06:30:16.298Z,98.79
2023-04-15T06:33:05.599Z,98.59
2023-04-15T06:35:49.874Z,98.42
2023-04-15T06:38:43.887Z,98.20
2023-04-15T06:41:34.384Z,98.24
2023-04-15T06:44:20.271Z,98.03
2023-04-15T06:47:04.629Z,97.73
2023-04-15T06:49:47.540Z,97.33
2023-04-15T06:52:32.732Z,96.69
2023-04-15T06:55:34.061Z,96.53
2023-04-15T06:58:15.457Z,96.54
2023-04-15T07:01:07.658Z,96.71
2023-04-15T07:03:42.144Z,96.27
2023-04-15T07:06:44.159Z,96.08
2023-04-15T07:09:29.335Z,95.86
2023-04-15T07:12:26.906Z,95.67
2023-04-15T07:15:13.604Z,95.42
2023-04-15T07:18:09.847Z,95.37
2023-04-15T07:21:00.438Z,94.95
2023-04-15T07:23:40.607Z,94.57
2023-04-15T07:26:32.378Z,94.21
2023-04-15T07:29:11.963Z,94.09
2023-04-15T07:31:52.121Z,94.00
2023-04-15T07:35:00.437Z,93.70
2023-04-15T07:38:03.290Z,93.27
2023-04-15T07:41:15.908Z,92.85
2023-04-15T07:44:28.941Z,92.28
2023-04-15T07:47:34.323Z,91.44
2023-04-15T07:50:39.119Z,90.81
2023-04-15T07:53:33.710Z,90.01
2023-04-15T07:56:40.277Z,89.81
2023-04-15T07:59:36.921Z,88.97
2023-04-15T08:02:50.619Z,88.69
2023-04-15T08:06:05.320Z,87.61
2023-04-15T08:09:13.738Z,86.69
2023-04-15T08:12:16.107Z,85.91
2023-04-15T08:15:18.492Z,85.11
2023-04-15T08:18:15.939Z,84.57
2023-04-15T08:21:14.117Z,83.69
2023-04-15T08:24:31.653Z,82.93
2023-04-15T08:27:14.357Z,83.08
2023-04-15T08:30:22.361Z,83.20
2023-04-15T08:33:10.811Z,82.75
2023-04-15T08:36:11.145Z,81.78
2023-04-15T08:39:02.545Z,80.82
2023-04-15T08:42:23.386Z,79.91
2023-04-15T08:45:12.321Z,79.21
2023-04-15T08:48:19.101Z,78.89
2023-04-15T08:51:18.812Z,79.44
2023-04-15T08:54:20.156Z,78.98
2023-04-15T08:57:04.218Z,79.01
2023-04-15T08:59:46.820Z,78.80
2023-04-15T09:02:30.152Z,78.24
2023-04-15T09:05:21.767Z,76.94
2023-04-15T09:08:19.903Z,76.63
2023-04-15T09:11:11.560Z,76.75
2023-04-15T09:14:00.753Z,76.31
2023-04-15T09:17:03.403Z,75.71
2023-04-15T09:19:48.368Z,74.53
2023-04-15T09:22:40.501Z,74.35
2023-04-15T09:26:05.910Z,74.06
2023-04-15T09:28:48.216Z,74.02
2023-04-15T09:31:41.170Z,74.04
2023-04-15T09:34:56.656Z,74.60
2023-04-15T09:37:50.424Z,74.71
2023-04-15T09:41:07.552Z,74.22
2023-04-15T09:44:08.072Z,72.95
2023-04-15T09:47:04.916Z,72.59
2023-04-15T09:49:59.217Z,72.62
2023-04-15T09:52:53.280Z,72.52
2023-04-15T09:55:47.664Z,72.22
2023-04-15T09:59:03.173Z,72.16
2023-04-15T10:02:05.649Z,71.93
2023-04-15T10:04:48.750Z,71.56
2023-04-15T10:07:41.495Z,71.28
2023-04-15T10:10:33.323Z,70.81
2023-04-15T10:13:36.413Z,71.07
2023-04-15T10:16:30.698Z,71.08
2023-04-15T10:19:24.736Z,70.79
2023-04-15T10:22:14.358Z,70.59
2023-04-15T10:25:16.729Z,70.36
2023-04-15T10:28:11.417Z,69.99
2023-04-15T10:31:15.259Z,69.61
2023-04-15T10:34:06.775Z,69.49
2023-04-15T10:36:54.789Z,70.00
2023-04-15T10:39:44.762Z,69.86
2023-04-15T10:42:37.255Z,70.23
2023-04-15T10:45:37.740Z,69.47
2023-04-15T10:48:12.079Z,69.85
2023-04-15T10:50:57.021Z,70.13
2023-04-15T10:53:34.205Z,69.57
2023-04-15T10:56:06.068Z,69.43
2023-04-15T10:58:46.930Z,69.68
2023-04-15T11:01:18.481Z,68.06
2023-04-15T11:03:50.183Z,66.99
2023-04-15T11:06:45.739Z,66.58
2023-04-15T11:09:35.013Z,66.09
2023-04-15T11:12:12.301Z,66.50
2023-04-15T11:14:43.574Z,65.36
2023-04-15T11:17:14.685Z,65.16
2023-04-15T11:19:44.602Z,64.74
2023-04-15T11:22:16.153Z,64.23
2023-04-15T11:24:53.438Z,64.08
2023-04-15T11:27:32.873Z,64.24
2023-04-15T11:30:19.475Z,63.89
2023-04-15T11:32:49.149Z,63.46
2023-04-15T11:35:22.885Z,63.39
2023-04-15T11:37:51.977Z,63.21
2023-04-15T11:40:28.921Z,63.03
2023-04-15T11:43:18.856Z,62.75
2023-04-15T11:46:00.396Z,61.87
2023-04-15T11:48:33.004Z,61.51
2023-04-15T11:51:09.676Z,61.64
2023-04-15T11:53:41.174Z,61.30
2023-04-15T11:56:18.931Z,61.46
2023-04-15T11:58:58.579Z,61.95
2023-04-15T12:01:39.979Z,62.25
2023-04-15T12:04:25.172Z,62.20
2023-04-15T12:07:07.628Z,62.05
2023-04-15T12:09:40.246Z,61.91
2023-04-15T12:12:14.410Z,61.90
2023-04-15T12:14:55.280Z,62.02
2023-04-15T12:17:31.901Z,62.16
2023-04-15T12:20:26.889Z,62.17
2023-04-15T12:23:10.688Z,62.06
2023-04-15T12:25:52.899Z,62.12
2023-04-15T12:28:31.198Z,62.39
2023-04-15T12:31:10.292Z,62.17
2023-04-15T12:33:44.736Z,61.79
2023-04-15T12:36:19.171Z,61.70
2023-04-15T12:39:00.757Z,61.89
2023-04-15T12:41:38.452Z,61.66
2023-04-15T12:44:09.697Z,61.91
2023-04-15T12:46:43.662Z,61.75
2023-04-15T12:49:21.096Z,60.71
2023-04-15T12:51:55.979Z,60.18
2023-04-15T12:54:30.696Z,60.39
2023-04-15T12:57:14.078Z,60.36
2023-04-15T12:59:48.398Z,60.24
2023-04-15T13:02:30.810Z,60.37
2023-04-15T13:05:24.782Z,60.10
2023-04-15T13:08:13.225Z,59.93
2023-04-15T13:10:49.382Z,59.80
2023-04-15T13:13:28.409Z,59.83
2023-04-15T13:16:04.826Z,60.04
2023-04-15T13:18:42.466Z,60.04
2023-04-15T13:21:16.073Z,59.99
2023-04-15T13:23:53.461Z,59.82
2023-04-15T13:26:33.209Z,59.80
2023-04-15T13:29:12.537Z,59.66
2023-04-15T13:31:50.704Z,59.74
2023-04-15T13:34:27.721Z,59.78
2023-04-15T13:37:11.252Z,59.48
2023-04-15T13:39:55.125Z,59.24
2023-04-15T13:42:33.912Z,59.36
2023-04-15T13:45:10.789Z,59.00
2023-04-15T13:47:42.565Z,59.26
2023-04-15T13:50:17.352Z,59.52
2023-04-15T13:53:05.924Z,59.34
2023-04-15T13:55:42.806Z,59.05
2023-04-15T13:58:30.429Z,59.01
2023-04-15T14:01:05.749Z,58.93
2023-04-15T14:03:40.584Z,59.05
2023-04-15T14:06:22.711Z,59.20
2023-04-15T14:08:59.366Z,58.96
2023-04-15T14:11:42.185Z,58.80
2023-04-15T14:14:27.862Z,58.64
2023-04-15T14:17:14.468Z,58.62
2023-04-15T14:19:53.498Z,58.22
2023-04-15T14:22:32.210Z,58.24
2023-04-15T14:25:06.672Z,58.52
2023-04-15T14:27:44.017Z,58.55
2023-04-15T14:30:15.792Z,58.71
2023-04-15T14:32:56.069Z,58.66
2023-04-15T14:35:27.589Z,58.25
2023-04-15T14:38:06.402Z,57.85
2023-04-15T14:40:37.439Z,57.72
2023-04-15T14:43:11.256Z,56.98
2023-04-15T14:45:44.571Z,56.61
2023-04-15T14:48:22.335Z,57.03
2023-04-15T14:50:51.126Z,56.52
2023-04-15T14:53:25.443Z,56.41
2023-04-15T14:56:02.727Z,56.22
2023-04-15T14:58:33.989Z,55.93
2023-04-15T15:01:04.308Z,55.46
2023-04-15T15:03:33.075Z,55.28
2023-04-15T15:06:04.843Z,55.16
2023-04-15T15:08:38.641Z,54.66
2023-04-15T15:11:09.684Z,54.14
2023-04-15T15:13:38.680Z,53.86
2023-04-15T15:16:10.635Z,53.56
2023-04-15T15:18:40.251Z,53.39
2023-04-15T15:21:08.721Z,53.37
2023-04-15T15:23:37.106Z,53.28
2023-04-15T15:26:05.783Z,53.47
2023-04-15T15:28:35.247Z,53.62
2023-04-15T15:31:04.839Z,53.63
2023-04-15T15:33:33.581Z,53.66
2023-04-15T15:36:02.415Z,53.70
2023-04-15T15:38:30.750Z,53.63
2023-04-15T15:41:02.300Z,53.21
2023-04-15T15:43:30.563Z,53.00
2023-04-15T15:45:59.047Z,53.09
2023-04-15T15:48:27.420Z,52.90
2023-04-15T15:50:55.892Z,52.92
2023-04-15T15:53:26.014Z,53.17
2023-04-15T15:55:54.296Z,53.49
2023-04-15T15:58:22.876Z,53.17
2023-04-15T16:00:51.324Z,53.12
2023-04-15T16:03:20.183Z,52.98
2023-04-15T16:05:49.238Z,52.93
2023-04-15T16:08:18.020Z,53.01
2023-04-15T16:10:46.601Z,52.95
2023-04-15T16:13:15.658Z,53.01
2023-04-15T16:15:50.058Z,53.05
2023-04-15T16:18:18.604Z,53.12
2023-04-15T16:20:54.445Z,52.96
2023-04-15T16:23:23.948Z,53.23
2023-04-15T16:25:54.784Z,53.22
2023-04-15T16:28:26.758Z,53.43
2023-04-15T16:31:01.098Z,53.33
2023-04-15T16:33:32.207Z,53.22
2023-04-15T16:36:04.491Z,53.50
2023-04-15T16:38:35.807Z,53.74
2023-04-15T16:41:04.614Z,53.76
2023-04-15T16:43:35.950Z,53.74
2023-04-15T16:46:08.017Z,53.72
2023-04-15T16:48:39.873Z,53.72
2023-04-15T16:51:11.017Z,53.87
2023-04-15T16:53:48.667Z,54.09
2023-04-15T16:56:17.373Z,54.78
2023-04-15T16:58:48.333Z,56.16
2023-04-15T17:01:20.352Z,57.34
2023-04-15T17:03:53.443Z,58.21
2023-04-15T17:06:26.879Z,59.17
2023-04-15T17:08:55.969Z,60.11
2023-04-15T17:11:33.050Z,60.83
2023-04-15T17:14:06.342Z,61.40
2023-04-15T17:16:47.724Z,62.23
2023-04-15T17:19:27.057Z,62.72
2023-04-15T17:22:02.401Z,63.22
2023-04-15T17:24:42.348Z,63.73
2023-04-15T17:27:14.158Z,64.48
2023-04-15T17:29:51.287Z,64.70
2023-04-15T17:32:40.229Z,65.26
2023-04-15T17:35:51.835Z,65.61
2023-04-15T17:38:51.796Z,66.34
2023-04-15T17:41:32.011Z,66.56
2023-04-15T17:44:25.193Z,67.04
2023-04-15T17:47:19.656Z,67.34
2023-04-15T17:50:27.455Z,67.75
2023-04-15T17:53:19.177Z,68.11
2023-04-15T17:56:20.945Z,68.34
2023-04-15T17:59:15.447Z,68.90
2023-04-15T18:02:21.142Z,68.93
2023-04-15T18:05:16.340Z,69.48
2023-04-15T18:08:16.608Z,69.86
2023-04-15T18:11:13.045Z,70.38
2023-04-15T18:14:02.754Z,70.51
2023-04-15T18:16:40.901Z,71.01
2023-04-15T18:19:53.752Z,71.10
2023-04-15T18:22:31.638Z,71.49
2023-04-15T18:25:46.207Z,71.64
2023-04-15T18:28:27.421Z,71.93
2023-04-15T18:31:30.072Z,72.27
2023-04-15T18:34:23.222Z,72.68
2023-04-15T18:37:22.223Z,72.90
2023-04-15T18:40:16.219Z,73.44
2023-04-15T18:43:25.019Z,73.43
2023-04-15T18:46:37.001Z,73.87
2023-04-15T18:49:45.740Z,74.17
2023-04-15T18:52:44.552Z,74.61
2023-04-15T18:55:35.951Z,74.73
2023-04-15T18:59:08.864Z,74.92
2023-04-15T19:02:20.830Z,75.27
2023-04-15T19:05:36.624Z,75.65
2023-04-15T19:08:26.712Z,75.85
2023-04-15T19:11:42.130Z,76.18
2023-04-15T19:14:41.084Z,76.59
2023-04-15T19:17:39.789Z,76.82
2023-04-15T19:20:58.730Z,77.16
2023-04-15T19:23:57.419Z,77.46
2023-04-15T19:26:53.342Z,77.64
2023-04-15T19:29:52.545Z,77.73
2023-04-15T19:33:08.021Z,77.91
2023-04-15T19:36:31.910Z,78.26
2023-04-15T19:39:29.775Z,78.55
2023-04-15T19:42:35.317Z,78.75
2023-04-15T19:45:56.957Z,79.13
2023-04-15T19:49:02.201Z,79.25
2023-04-15T19:51:45.317Z,79.27
2023-04-15T19:54:40.922Z,79.50
2023-04-15T19:57:44.214Z,79.72
2023-04-15T20:00:43.522Z,79.79
2023-04-15T20:04:04.627Z,80.04
2023-04-15T20:07:07.827Z,80.16
2023-04-15T20:10:16.556Z,80.22
2023-04-15T20:13:27.932Z,80.45
2023-04-15T20:16:38.601Z,80.76
2023-04-15T20:19:41.812Z,80.95
2023-04-15T20:22:47.552Z,81.32
2023-04-15T20:25:59.653Z,81.27
2023-04-15T20:29:17.557Z,81.62
2023-04-15T20:32:28.560Z,81.67
2023-04-15T20:35:28.474Z,81.90
2023-04-15T20:38:50.506Z,81.90
2023-04-15T20:42:10.406Z,81.90
2023-04-15T20:45:14.712Z,81.90
2023-04-15T20:48:24.664Z,81.78
2023-04-15T20:51:45.848Z,81.87
2023-04-15T20:55:09.250Z,81.99
2023-04-15T20:58:21.997Z,82.10
2023-04-15T21:01:25.091Z,81.91
2023-04-15T21:04:39.410Z,82.09
2023-04-15T21:07:54.156Z,82.56
2023-04-15T21:10:54.197Z,82.62
2023-04-15T21:14:27.673Z,82.80
2023-04-15T21:17:45.770Z,82.92
2023-04-15T21:21:09.127Z,82.63
2023-04-15T21:24:26.835Z,82.70
2023-04-15T21:27:54.857Z,82.78
2023-04-15T21:31:07.627Z,82.97
2023-04-15T21:34:56.809Z,83.33
2023-04-15T21:38:23.235Z,83.49
2023-04-15T21:41:54.251Z,83.64
2023-04-15T21:45:34.674Z,84.06
2023-04-15T21:49:12.521Z,84.07
2023-04-15T21:53:00.391Z,83.85
2023-04-15T21:56:49.473Z,84.40
2023-04-15T22:00:38.716Z,84.20
2023-04-15T22:04:31.993Z,83.74
2023-04-15T22:08:19.537Z,83.99
2023-04-15T22:12:08.393Z,84.32
2023-04-15T22:15:50.073Z,84.59
2023-04-15T22:19:38.112Z,84.53
2023-04-15T22:23:20.149Z,85.04
2023-04-15T22:26:59.274Z,85.53
2023-04-15T22:30:35.236Z,85.04
2023-04-15T22:34:04.171Z,85.01
2023-04-15T22:37:38.069Z,85.10
2023-04-15T22:41:03.970Z,85.44
2023-04-15T22:44:42.787Z,85.45
2023-04-15T22:48:21.824Z,85.64
2023-04-15T22:51:59.795Z,85.89
2023-04-15T22:55:49.217Z,85.69
2023-04-15T22:59:32.333Z,85.83
2023-04-15T23:03:12.633Z,85.92
2023-04-15T23:07:00.332Z,85.90
2023-04-15T23:10:48.375Z,86.20
2023-04-15T23:14:30.381Z,86.10
2023-04-15T23:18:19.485Z,86.30
2023-04-15T23:21:49.203Z,86.16
2023-04-15T23:25:18.575Z,86.04
2023-04-15T23:29:07.901Z,86.06
2023-04-15T23:32:57.465Z,86.18
2023-04-15T23:36:46.797Z,86.78
2023-04-15T23:40:35.966Z,86.67
2023-04-15T23:44:19.259Z,86.60
2023-04-15T23:47:59.937Z,86.57
2023-04-15T23:51:49.242Z,86.39
2023-04-15T23:55:38.395Z,86.74
2023-04-15T23:59:26.558Z,86.58
